sensor_id;sensor_type;location;lat;lon;timestamp;P1;durP1;ratioP1;P2;durP2;ratioP2
21814;SDS011;11069;48.988;8.450;2023-04-15T00:00:11;6.03;;;2.83;;
21814;SDS011;11069;48.988;8.450;2023-04-15T00:02:37;3.65;;;2.10;;
21814;SDS011;11069;48.988;8.450;2023-04-15T00:05:03;5.00;;;2.55;;
21814;SDS011;11069;48.988;8.450;2023-04-15T00:07:29;6.72;;;2.40;;
21814;SDS011;11069;48.988;8.450;2023-04-15T00:09:55;3.42;;;2.30;;
21814;SDS011;11069;48.988;8.450;2023-04-15T00:12:22;5.00;;;2.58;;
21814;SDS011;11069;48.988;8.450;2023-04-15T00:14:51;4.32;;;2.75;;
21814;SDS011;11069;48.988;8.450;2023-04-15T00:17:18;5.68;;;3.05;;
21814;SDS011;11069;48.988;8.450;2023-04-15T00:19:44;4.80;;;2.63;;
21814;SDS011;11069;48.988;8.450;2023-04-15T00:22:09;3.92;;;2.80;;
21814;SDS011;11069;48.988;8.450;2023-04-15T00:24:36;4.28;;;2.28;;
21814;SDS011;11069;48.988;8.450;2023-04-15T00:27:01;5.13;;;2.60;;
21814;SDS011;11069;48.988;8.450;2023-04-15T00:29:28;4.05;;;2.35;;
21814;SDS011;11069;48.988;8.450;2023-04-15T00:31:54;3.80;;;2.60;;
21814;SDS011;11069;48.988;8.450;2023-04-15T00:34:21;3.55;;;2.20;;
21814;SDS011;11069;48.988;8.450;2023-04-15T00:36:47;4.40;;;2.88;;
21814;SDS011;11069;48.988;8.450;2023-04-15T00:39:13;4.75;;;2.33;;
21814;SDS011;11069;48.988;8.450;2023-04-15T00:41:38;6.75;;;2.78;;
21814;SDS011;11069;48.988;8.450;2023-04-15T00:44:05;5.22;;;2.47;;
21814;SDS011;11069;48.988;8.450;2023-04-15T00:46:31;6.75;;;2.78;;
21814;SDS011;11069;48.988;8.450;2023-04-15T00:48:59;5.30;;;2.65;;
21814;SDS011;11069;48.988;8.450;2023-04-15T00:51:25;4.07;;;2.60;;
21814;SDS011;11069;48.988;8.450;2023-04-15T00:53:51;3.40;;;2.55;;
21814;SDS011;11069;48.988;8.450;2023-04-15T00:56:16;6.47;;;2.55;;
21814;SDS011;11069;48.988;8.450;2023-04-15T00:58:45;4.18;;;2.72;;
21814;SDS011;11069;48.988;8.450;2023-04-15T01:01:11;3.58;;;2.65;;
21814;SDS011;11069;48.988;8.450;2023-04-15T01:03:37;5.03;;;2.70;;
21814;SDS011;11069;48.988;8.450;2023-04-15T01:06:03;4.13;;;2.70;;
21814;SDS011;11069;48.988;8.450;2023-04-15T01:08:28;4.32;;;2.78;;
21814;SDS011;11069;48.988;8.450;2023-04-15T01:10:55;3.75;;;2.67;;
21814;SDS011;11069;48.988;8.450;2023-04-15T01:13:22;3.70;;;2.70;;
21814;SDS011;11069;48.988;8.450;2023-04-15T01:15:49;4.75;;;2.63;;
21814;SDS011;11069;48.988;8.450;2023-04-15T01:18:15;4.93;;;2.97;;
21814;SDS011;11069;48.988;8.450;2023-04-15T01:20:41;4.35;;;2.63;;
21814;SDS011;11069;48.988;8.450;2023-04-15T01:23:07;6.25;;;2.92;;
21814;SDS011;11069;48.988;8.450;2023-04-15T01:25:33;6.05;;;3.00;;
21814;SDS011;11069;48.988;8.450;2023-04-15T01:27:59;3.95;;;2.45;;
21814;SDS011;11069;48.988;8.450;2023-04-15T01:30:25;4.65;;;2.80;;
21814;SDS011;11069;48.988;8.450;2023-04-15T01:32:51;6.60;;;2.97;;
21814;SDS011;11069;48.988;8.450;2023-04-15T01:35:17;5.20;;;2.83;;
21814;SDS011;11069;48.988;8.450;2023-04-15T01:37:43;5.15;;;3.00;;
21814;SDS011;11069;48.988;8.450;2023-04-15T01:40:10;4.72;;;2.92;;
21814;SDS011;11069;48.988;8.450;2023-04-15T01:42:35;4.85;;;2.75;;
21814;SDS011;11069;48.988;8.450;2023-04-15T01:45:01;4.18;;;3.13;;
21814;SDS011;11069;48.988;8.450;2023-04-15T01:47:27;8.07;;;3.05;;
21814;SDS011;11069;48.988;8.450;2023-04-15T01:49:53;4.20;;;3.05;;
21814;SDS011;11069;48.988;8.450;2023-04-15T01:52:19;5.18;;;3.13;;
21814;SDS011;11069;48.988;8.450;2023-04-15T01:54:44;3.13;;;2.63;;
21814;SDS011;11069;48.988;8.450;2023-04-15T01:57:10;5.43;;;2.80;;
21814;SDS011;11069;48.988;8.450;2023-04-15T01:59:36;4.95;;;3.05;;
21814;SDS011;11069;48.988;8.450;2023-04-15T02:02:02;5.90;;;3.20;;
21814;SDS011;11069;48.988;8.450;2023-04-15T02:04:28;4.90;;;3.00;;
21814;SDS011;11069;48.988;8.450;2023-04-15T02:06:54;5.30;;;3.10;;
21814;SDS011;11069;48.988;8.450;2023-04-15T02:09:19;5.93;;;3.33;;
21814;SDS011;11069;48.988;8.450;2023-04-15T02:11:45;6.53;;;3.42;;
21814;SDS011;11069;48.988;8.450;2023-04-15T02:14:10;4.50;;;3.05;;
21814;SDS011;11069;48.988;8.450;2023-04-15T02:16:36;4.82;;;3.05;;
21814;SDS011;11069;48.988;8.450;2023-04-15T02:19:02;5.22;;;3.50;;
21814;SDS011;11069;48.988;8.450;2023-04-15T02:21:28;6.90;;;3.10;;
21814;SDS011;11069;48.988;8.450;2023-04-15T02:23:54;6.65;;;3.92;;
21814;SDS011;11069;48.988;8.450;2023-04-15T02:26:19;5.45;;;3.13;;
21814;SDS011;11069;48.988;8.450;2023-04-15T02:28:46;8.98;;;3.70;;
21814;SDS011;11069;48.988;8.450;2023-04-15T02:31:12;4.90;;;3.22;;
21814;SDS011;11069;48.988;8.450;2023-04-15T02:33:37;6.03;;;3.70;;
21814;SDS011;11069;48.988;8.450;2023-04-15T02:36:03;6.57;;;3.55;;
21814;SDS011;11069;48.988;8.450;2023-04-15T02:38:29;6.90;;;3.40;;
21814;SDS011;11069;48.988;8.450;2023-04-15T02:40:55;6.88;;;3.60;;
21814;SDS011;11069;48.988;8.450;2023-04-15T02:43:21;6.82;;;3.67;;
21814;SDS011;11069;48.988;8.450;2023-04-15T02:45:47;5.70;;;3.75;;
21814;SDS011;11069;48.988;8.450;2023-04-15T02:48:14;6.93;;;3.97;;
21814;SDS011;11069;48.988;8.450;2023-04-15T02:50:41;4.32;;;3.47;;
21814;SDS011;11069;48.988;8.450;2023-04-15T02:53:07;5.53;;;3.58;;
21814;SDS011;11069;48.988;8.450;2023-04-15T02:55:33;5.47;;;3.10;;
21814;SDS011;11069;48.988;8.450;2023-04-15T02:57:58;5.35;;;3.90;;
21814;SDS011;11069;48.988;8.450;2023-04-15T03:00:25;6.05;;;4.03;;
21814;SDS011;11069;48.988;8.450;2023-04-15T03:02:56;6.75;;;3.95;;
21814;SDS011;11069;48.988;8.450;2023-04-15T03:05:28;6.88;;;4.03;;
21814;SDS011;11069;48.988;8.450;2023-04-15T03:07:54;7.68;;;3.92;;
21814;SDS011;11069;48.988;8.450;2023-04-15T03:10:20;5.32;;;4.00;;
21814;SDS011;11069;48.988;8.450;2023-04-15T03:12:46;5.88;;;3.90;;
21814;SDS011;11069;48.988;8.450;2023-04-15T03:15:12;4.78;;;4.05;;
21814;SDS011;11069;48.988;8.450;2023-04-15T03:17:37;5.38;;;3.78;;
21814;SDS011;11069;48.988;8.450;2023-04-15T03:20:04;7.20;;;4.03;;
21814;SDS011;11069;48.988;8.450;2023-04-15T03:22:30;5.78;;;3.97;;
21814;SDS011;11069;48.988;8.450;2023-04-15T03:24:56;7.38;;;4.13;;
21814;SDS011;11069;48.988;8.450;2023-04-15T03:27:22;5.35;;;4.13;;
21814;SDS011;11069;48.988;8.450;2023-04-15T03:29:48;4.15;;;3.75;;
21814;SDS011;11069;48.988;8.450;2023-04-15T03:32:14;6.88;;;3.95;;
21814;SDS011;11069;48.988;8.450;2023-04-15T03:34:40;6.75;;;4.03;;
21814;SDS011;11069;48.988;8.450;2023-04-15T03:37:06;5.70;;;4.13;;
21814;SDS011;11069;48.988;8.450;2023-04-15T03:39:32;7.07;;;4.35;;
21814;SDS011;11069;48.988;8.450;2023-04-15T03:41:58;9.65;;;4.10;;
21814;SDS011;11069;48.988;8.450;2023-04-15T03:44:25;5.63;;;4.18;;
21814;SDS011;11069;48.988;8.450;2023-04-15T03:46:51;6.63;;;4.07;;
21814;SDS011;11069;48.988;8.450;2023-04-15T03:49:17;5.55;;;4.43;;
21814;SDS011;11069;48.988;8.450;2023-04-15T03:51:43;6.70;;;4.30;;
21814;SDS011;11069;48.988;8.450;2023-04-15T03:54:12;5.10;;;3.92;;
21814;SDS011;11069;48.988;8.450;2023-04-15T03:56:40;7.45;;;4.22;;
21814;SDS011;11069;48.988;8.450;2023-04-15T03:59:06;8.10;;;4.20;;
21814;SDS011;11069;48.988;8.450;2023-04-15T04:01:31;6.57;;;4.13;;
21814;SDS011;11069;48.988;8.450;2023-04-15T04:03:57;8.23;;;3.80;;
21814;SDS011;11069;48.988;8.450;2023-04-15T04:06:22;6.57;;;4.28;;
21814;SDS011;11069;48.988;8.450;2023-04-15T04:08:48;6.07;;;3.85;;
21814;SDS011;11069;48.988;8.450;2023-04-15T04:11:14;5.43;;;4.20;;
21814;SDS011;11069;48.988;8.450;2023-04-15T04:13:40;5.47;;;4.07;;
21814;SDS011;11069;48.988;8.450;2023-04-15T04:16:05;5.57;;;4.28;;
21814;SDS011;11069;48.988;8.450;2023-04-15T04:18:31;7.32;;;4.05;;
21814;SDS011;11069;48.988;8.450;2023-04-15T04:20:57;6.25;;;4.03;;
21814;SDS011;11069;48.988;8.450;2023-04-15T04:23:23;5.78;;;4.32;;
21814;SDS011;11069;48.988;8.450;2023-04-15T04:25:49;6.07;;;4.18;;
21814;SDS011;11069;48.988;8.450;2023-04-15T04:28:15;6.85;;;4.28;;
21814;SDS011;11069;48.988;8.450;2023-04-15T04:30:40;7.20;;;4.50;;
21814;SDS011;11069;48.988;8.450;2023-04-15T04:33:06;9.07;;;4.80;;
21814;SDS011;11069;48.988;8.450;2023-04-15T04:35:32;6.20;;;4.20;;
21814;SDS011;11069;48.988;8.450;2023-04-15T04:37:59;7.47;;;4.30;;
21814;SDS011;11069;48.988;8.450;2023-04-15T04:40:25;5.85;;;4.03;;
21814;SDS011;11069;48.988;8.450;2023-04-15T04:42:51;6.88;;;4.53;;
21814;SDS011;11069;48.988;8.450;2023-04-15T04:45:17;5.45;;;4.40;;
21814;SDS011;11069;48.988;8.450;2023-04-15T04:47:43;6.82;;;4.68;;
21814;SDS011;11069;48.988;8.450;2023-04-15T04:50:10;5.65;;;4.40;;
21814;SDS011;11069;48.988;8.450;2023-04-15T04:52:36;5.95;;;4.15;;
21814;SDS011;11069;48.988;8.450;2023-04-15T04:55:01;6.80;;;4.60;;
21814;SDS011;11069;48.988;8.450;2023-04-15T04:57:27;5.60;;;4.53;;
21814;SDS011;11069;48.988;8.450;2023-04-15T04:59:52;6.32;;;4.55;;
21814;SDS011;11069;48.988;8.450;2023-04-15T05:02:18;5.85;;;3.85;;
21814;SDS011;11069;48.988;8.450;2023-04-15T05:04:43;5.05;;;4.15;;
21814;SDS011;11069;48.988;8.450;2023-04-15T05:07:09;5.70;;;4.38;;
21814;SDS011;11069;48.988;8.450;2023-04-15T05:09:35;7.78;;;4.28;;
21814;SDS011;11069;48.988;8.450;2023-04-15T05:12:01;5.63;;;4.25;;
21814;SDS011;11069;48.988;8.450;2023-04-15T05:14:27;5.97;;;4.30;;
21814;SDS011;11069;48.988;8.450;2023-04-15T05:16:53;5.25;;;4.25;;
21814;SDS011;11069;48.988;8.450;2023-04-15T05:19:18;7.70;;;4.53;;
21814;SDS011;11069;48.988;8.450;2023-04-15T05:21:44;5.97;;;4.28;;
21814;SDS011;11069;48.988;8.450;2023-04-15T05:24:10;8.52;;;4.65;;
21814;SDS011;11069;48.988;8.450;2023-04-15T05:26:35;8.98;;;5.00;;
21814;SDS011;11069;48.988;8.450;2023-04-15T05:29:01;6.07;;;4.95;;
21814;SDS011;11069;48.988;8.450;2023-04-15T05:31:26;6.38;;;4.75;;
21814;SDS011;11069;48.988;8.450;2023-04-15T05:33:52;6.22;;;4.35;;
21814;SDS011;11069;48.988;8.450;2023-04-15T05:36:17;7.75;;;4.72;;
21814;SDS011;11069;48.988;8.450;2023-04-15T05:38:43;7.20;;;4.65;;
21814;SDS011;11069;48.988;8.450;2023-04-15T05:41:08;7.05;;;4.72;;
21814;SDS011;11069;48.988;8.450;2023-04-15T05:43:34;11.75;;;4.97;;
21814;SDS011;11069;48.988;8.450;2023-04-15T05:46:00;6.22;;;4.40;;
21814;SDS011;11069;48.988;8.450;2023-04-15T05:48:25;6.22;;;4.18;;
21814;SDS011;11069;48.988;8.450;2023-04-15T05:50:51;7.15;;;4.80;;
21814;SDS011;11069;48.988;8.450;2023-04-15T05:53:16;4.20;;;3.80;;
21814;SDS011;11069;48.988;8.450;2023-04-15T05:55:42;4.75;;;4.25;;
21814;SDS011;11069;48.988;8.450;2023-04-15T05:58:08;8.18;;;4.55;;
21814;SDS011;11069;48.988;8.450;2023-04-15T06:00:33;6.82;;;4.35;;
21814;SDS011;11069;48.988;8.450;2023-04-15T06:02:59;7.93;;;4.47;;
21814;SDS011;11069;48.988;8.450;2023-04-15T06:05:25;6.88;;;4.60;;
21814;SDS011;11069;48.988;8.450;2023-04-15T06:07:50;7.10;;;4.85;;
21814;SDS011;11069;48.988;8.450;2023-04-15T06:10:16;5.38;;;4.40;;
21814;SDS011;11069;48.988;8.450;2023-04-15T06:12:41;6.22;;;4.65;;
21814;SDS011;11069;48.988;8.450;2023-04-15T06:15:08;6.97;;;5.00;;
21814;SDS011;11069;48.988;8.450;2023-04-15T06:17:34;5.72;;;4.70;;
21814;SDS011;11069;48.988;8.450;2023-04-15T06:20:00;5.13;;;4.43;;
21814;SDS011;11069;48.988;8.450;2023-04-15T06:22:26;9.65;;;4.68;;
21814;SDS011;11069;48.988;8.450;2023-04-15T06:24:52;7.93;;;4.30;;
21814;SDS011;11069;48.988;8.450;2023-04-15T06:27:18;6.32;;;4.07;;
21814;SDS011;11069;48.988;8.450;2023-04-15T06:29:43;6.80;;;4.60;;
21814;SDS011;11069;48.988;8.450;2023-04-15T06:32:09;7.25;;;3.85;;
21814;SDS011;11069;48.988;8.450;2023-04-15T06:34:35;9.07;;;4.22;;
21814;SDS011;11069;48.988;8.450;2023-04-15T06:37:01;11.57;;;4.63;;
21814;SDS011;11069;48.988;8.450;2023-04-15T06:39:27;11.10;;;4.47;;
21814;SDS011;11069;48.988;8.450;2023-04-15T06:41:52;7.95;;;4.30;;
21814;SDS011;11069;48.988;8.450;2023-04-15T06:44:18;7.80;;;4.57;;
21814;SDS011;11069;48.988;8.450;2023-04-15T06:46:43;6.55;;;4.10;;
21814;SDS011;11069;48.988;8.450;2023-04-15T06:49:09;9.07;;;4.28;;
21814;SDS011;11069;48.988;8.450;2023-04-15T06:51:35;7.90;;;4.38;;
21814;SDS011;11069;48.988;8.450;2023-04-15T06:54:01;7.05;;;4.38;;
21814;SDS011;11069;48.988;8.450;2023-04-15T06:56:29;8.57;;;4.22;;
21814;SDS011;11069;48.988;8.450;2023-04-15T06:58:58;8.05;;;4.45;;
21814;SDS011;11069;48.988;8.450;2023-04-15T07:01:24;5.88;;;3.80;;
21814;SDS011;11069;48.988;8.450;2023-04-15T07:03:49;6.03;;;4.13;;
21814;SDS011;11069;48.988;8.450;2023-04-15T07:06:15;7.35;;;4.38;;
21814;SDS011;11069;48.988;8.450;2023-04-15T07:08:41;7.88;;;4.30;;
21814;SDS011;11069;48.988;8.450;2023-04-15T07:11:06;8.05;;;4.35;;
21814;SDS011;11069;48.988;8.450;2023-04-15T07:13:32;7.85;;;3.85;;
21814;SDS011;11069;48.988;8.450;2023-04-15T07:15:58;7.93;;;3.95;;
21814;SDS011;11069;48.988;8.450;2023-04-15T07:18:24;5.53;;;3.60;;
21814;SDS011;11069;48.988;8.450;2023-04-15T07:20:50;9.52;;;4.28;;
21814;SDS011;11069;48.988;8.450;2023-04-15T07:23:15;6.45;;;3.90;;
21814;SDS011;11069;48.988;8.450;2023-04-15T07:25:41;6.97;;;3.70;;
21814;SDS011;11069;48.988;8.450;2023-04-15T07:28:06;6.47;;;3.83;;
21814;SDS011;11069;48.988;8.450;2023-04-15T07:30:32;7.50;;;4.22;;
21814;SDS011;11069;48.988;8.450;2023-04-15T07:32:58;10.75;;;4.03;;
21814;SDS011;11069;48.988;8.450;2023-04-15T07:35:24;9.20;;;4.15;;
21814;SDS011;11069;48.988;8.450;2023-04-15T07:37:50;7.10;;;3.80;;
21814;SDS011;11069;48.988;8.450;2023-04-15T07:40:16;6.90;;;4.10;;
21814;SDS011;11069;48.988;8.450;2023-04-15T07:42:42;5.75;;;3.35;;
21814;SDS011;11069;48.988;8.450;2023-04-15T07:45:08;5.97;;;3.97;;
21814;SDS011;11069;48.988;8.450;2023-04-15T07:47:34;6.15;;;3.50;;
21814;SDS011;11069;48.988;8.450;2023-04-15T07:50:00;5.18;;;3.33;;
21814;SDS011;11069;48.988;8.450;2023-04-15T07:52:26;5.38;;;3.05;;
21814;SDS011;11069;48.988;8.450;2023-04-15T07:54:52;5.60;;;3.00;;
21814;SDS011;11069;48.988;8.450;2023-04-15T07:57:18;5.00;;;3.13;;
21814;SDS011;11069;48.988;8.450;2023-04-15T07:59:43;6.93;;;3.58;;
21814;SDS011;11069;48.988;8.450;2023-04-15T08:02:09;6.28;;;3.50;;
21814;SDS011;11069;48.988;8.450;2023-04-15T08:04:36;6.05;;;3.42;;
21814;SDS011;11069;48.988;8.450;2023-04-15T08:07:02;7.70;;;3.58;;
21814;SDS011;11069;48.988;8.450;2023-04-15T08:09:28;4.78;;;3.28;;
21814;SDS011;11069;48.988;8.450;2023-04-15T08:11:54;6.97;;;3.28;;
21814;SDS011;11069;48.988;8.450;2023-04-15T08:14:21;7.40;;;3.40;;
21814;SDS011;11069;48.988;8.450;2023-04-15T08:16:46;4.30;;;2.88;;
21814;SDS011;11069;48.988;8.450;2023-04-15T08:19:12;7.18;;;3.45;;
21814;SDS011;11069;48.988;8.450;2023-04-15T08:21:37;6.05;;;3.55;;
21814;SDS011;11069;48.988;8.450;2023-04-15T08:24:04;5.13;;;3.08;;
21814;SDS011;11069;48.988;8.450;2023-04-15T08:26:30;6.25;;;3.35;;
21814;SDS011;11069;48.988;8.450;2023-04-15T08:28:56;5.18;;;3.30;;
21814;SDS011;11069;48.988;8.450;2023-04-15T08:31:22;5.10;;;3.17;;
21814;SDS011;11069;48.988;8.450;2023-04-15T08:33:47;7.18;;;3.30;;
21814;SDS011;11069;48.988;8.450;2023-04-15T08:36:15;8.23;;;3.50;;
21814;SDS011;11069;48.988;8.450;2023-04-15T08:38:43;4.43;;;2.75;;
21814;SDS011;11069;48.988;8.450;2023-04-15T08:41:17;7.40;;;3.30;;
21814;SDS011;11069;48.988;8.450;2023-04-15T08:44:03;7.13;;;3.25;;
21814;SDS011;11069;48.988;8.450;2023-04-15T08:46:32;7.88;;;3.38;;
21814;SDS011;11069;48.988;8.450;2023-04-15T08:49:02;6.22;;;3.20;;
21814;SDS011;11069;48.988;8.450;2023-04-15T08:51:28;4.18;;;3.15;;
21814;SDS011;11069;48.988;8.450;2023-04-15T08:53:54;6.05;;;3.00;;
21814;SDS011;11069;48.988;8.450;2023-04-15T08:56:22;5.57;;;3.25;;
21814;SDS011;11069;48.988;8.450;2023-04-15T08:58:50;6.32;;;2.80;;
21814;SDS011;11069;48.988;8.450;2023-04-15T09:01:16;6.45;;;3.65;;
21814;SDS011;11069;48.988;8.450;2023-04-15T09:03:42;5.95;;;3.40;;
21814;SDS011;11069;48.988;8.450;2023-04-15T09:06:08;4.90;;;3.20;;
21814;SDS011;11069;48.988;8.450;2023-04-15T09:08:34;5.38;;;3.00;;
21814;SDS011;11069;48.988;8.450;2023-04-15T09:11:00;6.05;;;3.17;;
21814;SDS011;11069;48.988;8.450;2023-04-15T09:13:27;6.38;;;2.88;;
21814;SDS011;11069;48.988;8.450;2023-04-15T09:15:53;5.57;;;2.85;;
21814;SDS011;11069;48.988;8.450;2023-04-15T09:18:33;4.60;;;2.90;;
21814;SDS011;11069;48.988;8.450;2023-04-15T09:21:03;7.43;;;3.00;;
21814;SDS011;11069;48.988;8.450;2023-04-15T09:23:29;6.15;;;2.90;;
21814;SDS011;11069;48.988;8.450;2023-04-15T09:25:56;5.20;;;2.95;;
21814;SDS011;11069;48.988;8.450;2023-04-15T09:28:22;4.35;;;2.80;;
21814;SDS011;11069;48.988;8.450;2023-04-15T09:30:50;4.55;;;3.15;;
21814;SDS011;11069;48.988;8.450;2023-04-15T09:33:19;6.82;;;2.90;;
21814;SDS011;11069;48.988;8.450;2023-04-15T09:35:55;5.35;;;3.28;;
21814;SDS011;11069;48.988;8.450;2023-04-15T09:38:22;7.70;;;3.67;;
21814;SDS011;11069;48.988;8.450;2023-04-15T09:40:50;4.78;;;2.88;;
21814;SDS011;11069;48.988;8.450;2023-04-15T09:43:15;5.50;;;3.70;;
21814;SDS011;11069;48.988;8.450;2023-04-15T09:45:48;8.52;;;4.00;;
21814;SDS011;11069;48.988;8.450;2023-04-15T09:48:22;7.97;;;4.18;;
21814;SDS011;11069;48.988;8.450;2023-04-15T09:50:52;6.65;;;4.10;;
21814;SDS011;11069;48.988;8.450;2023-04-15T09:53:22;6.47;;;3.38;;
21814;SDS011;11069;48.988;8.450;2023-04-15T09:55:52;7.32;;;3.35;;
21814;SDS011;11069;48.988;8.450;2023-04-15T09:58:25;6.43;;;3.83;;
21814;SDS011;11069;48.988;8.450;2023-04-15T10:00:52;5.70;;;3.53;;
21814;SDS011;11069;48.988;8.450;2023-04-15T10:03:22;6.20;;;3.60;;
21814;SDS011;11069;48.988;8.450;2023-04-15T10:05:49;7.85;;;4.00;;
21814;SDS011;11069;48.988;8.450;2023-04-15T10:08:17;7.38;;;3.88;;
21814;SDS011;11069;48.988;8.450;2023-04-15T10:10:44;7.18;;;4.47;;
21814;SDS011;11069;48.988;8.450;2023-04-15T10:13:16;8.77;;;3.88;;
21814;SDS011;11069;48.988;8.450;2023-04-15T10:15:43;5.47;;;4.53;;
21814;SDS011;11069;48.988;8.450;2023-04-15T10:18:17;7.18;;;4.03;;
21814;SDS011;11069;48.988;8.450;2023-04-15T10:20:45;5.72;;;3.70;;
21814;SDS011;11069;48.988;8.450;2023-04-15T10:23:12;7.72;;;4.07;;
21814;SDS011;11069;48.988;8.450;2023-04-15T10:25:39;5.50;;;3.70;;
21814;SDS011;11069;48.988;8.450;2023-04-15T10:28:06;7.90;;;3.90;;
21814;SDS011;11069;48.988;8.450;2023-04-15T10:30:32;7.88;;;3.92;;
21814;SDS011;11069;48.988;8.450;2023-04-15T10:32:59;6.30;;;3.78;;
21814;SDS011;11069;48.988;8.450;2023-04-15T10:35:26;6.90;;;3.65;;
21814;SDS011;11069;48.988;8.450;2023-04-15T10:37:53;5.18;;;3.45;;
21814;SDS011;11069;48.988;8.450;2023-04-15T10:40:23;4.47;;;3.55;;
21814;SDS011;11069;48.988;8.450;2023-04-15T10:45:15;5.50;;;3.97;;
21814;SDS011;11069;48.988;8.450;2023-04-15T10:47:42;5.50;;;4.22;;
21814;SDS011;11069;48.988;8.450;2023-04-15T10:50:08;9.40;;;4.57;;
21814;SDS011;11069;48.988;8.450;2023-04-15T10:52:34;8.48;;;4.60;;
21814;SDS011;11069;48.988;8.450;2023-04-15T10:57:36;8.25;;;4.40;;
21814;SDS011;11069;48.988;8.450;2023-04-15T11:08:18;5.72;;;4.00;;
21814;SDS011;11069;48.988;8.450;2023-04-15T11:15:36;7.78;;;4.30;;
21814;SDS011;11069;48.988;8.450;2023-04-15T11:20:37;6.97;;;3.83;;
21814;SDS011;11069;48.988;8.450;2023-04-15T11:23:04;7.63;;;3.95;;
21814;SDS011;11069;48.988;8.450;2023-04-15T11:25:31;7.88;;;3.47;;
21814;SDS011;11069;48.988;8.450;2023-04-15T11:27:58;6.57;;;3.53;;
21814;SDS011;11069;48.988;8.450;2023-04-15T11:30:26;9.43;;;3.63;;
21814;SDS011;11069;48.988;8.450;2023-04-15T11:32:54;5.72;;;2.75;;
21814;SDS011;11069;48.988;8.450;2023-04-15T11:35:24;6.20;;;3.38;;
21814;SDS011;11069;48.988;8.450;2023-04-15T11:37:49;5.90;;;3.15;;
21814;SDS011;11069;48.988;8.450;2023-04-15T11:40:16;4.47;;;2.92;;
21814;SDS011;11069;48.988;8.450;2023-04-15T11:42:46;7.97;;;3.30;;
21814;SDS011;11069;48.988;8.450;2023-04-15T11:45:27;6.75;;;3.08;;
21814;SDS011;11069;48.988;8.450;2023-04-15T11:47:53;8.63;;;3.65;;
21814;SDS011;11069;48.988;8.450;2023-04-15T11:50:21;6.05;;;3.28;;
21814;SDS011;11069;48.988;8.450;2023-04-15T11:52:51;7.03;;;3.30;;
21814;SDS011;11069;48.988;8.450;2023-04-15T11:55:21;8.25;;;3.28;;
21814;SDS011;11069;48.988;8.450;2023-04-15T11:57:48;6.47;;;3.20;;
21814;SDS011;11069;48.988;8.450;2023-04-15T12:00:15;3.40;;;2.55;;
21814;SDS011;11069;48.988;8.450;2023-04-15T12:02:41;3.95;;;2.60;;
21814;SDS011;11069;48.988;8.450;2023-04-15T12:05:07;4.13;;;2.70;;
21814;SDS011;11069;48.988;8.450;2023-04-15T12:07:56;5.10;;;3.00;;
21814;SDS011;11069;48.988;8.450;2023-04-15T12:10:25;5.88;;;3.30;;
21814;SDS011;11069;48.988;8.450;2023-04-15T12:12:51;5.03;;;3.13;;
21814;SDS011;11069;48.988;8.450;2023-04-15T12:15:20;7.35;;;3.22;;
21814;SDS011;11069;48.988;8.450;2023-04-15T12:17:47;4.90;;;3.03;;
21814;SDS011;11069;48.988;8.450;2023-04-15T12:20:19;6.40;;;3.40;;
21814;SDS011;11069;48.988;8.450;2023-04-15T12:22:46;7.03;;;3.58;;
21814;SDS011;11069;48.988;8.450;2023-04-15T12:25:11;4.78;;;3.38;;
21814;SDS011;11069;48.988;8.450;2023-04-15T12:27:37;5.63;;;3.42;;
21814;SDS011;11069;48.988;8.450;2023-04-15T12:30:03;6.18;;;3.60;;
21814;SDS011;11069;48.988;8.450;2023-04-15T12:32:29;7.22;;;4.10;;
21814;SDS011;11069;48.988;8.450;2023-04-15T12:34:59;7.45;;;3.65;;
21814;SDS011;11069;48.988;8.450;2023-04-15T12:37:25;6.47;;;4.00;;
21814;SDS011;11069;48.988;8.450;2023-04-15T12:39:51;7.70;;;3.20;;
21814;SDS011;11069;48.988;8.450;2023-04-15T12:42:18;4.60;;;2.53;;
21814;SDS011;11069;48.988;8.450;2023-04-15T12:44:47;5.85;;;2.90;;
21814;SDS011;11069;48.988;8.450;2023-04-15T12:47:12;4.93;;;3.10;;
21814;SDS011;11069;48.988;8.450;2023-04-15T12:49:38;4.70;;;2.78;;
21814;SDS011;11069;48.988;8.450;2023-04-15T12:52:04;4.43;;;2.85;;
21814;SDS011;11069;48.988;8.450;2023-04-15T12:54:30;3.83;;;2.40;;
21814;SDS011;11069;48.988;8.450;2023-04-15T12:56:56;3.97;;;2.25;;
21814;SDS011;11069;48.988;8.450;2023-04-15T12:59:23;4.28;;;2.38;;
21814;SDS011;11069;48.988;8.450;2023-04-15T13:01:49;3.10;;;2.20;;
21814;SDS011;11069;48.988;8.450;2023-04-15T13:04:16;3.08;;;2.15;;
21814;SDS011;11069;48.988;8.450;2023-04-15T13:06:41;5.13;;;2.50;;
21814;SDS011;11069;48.988;8.450;2023-04-15T13:09:07;4.65;;;2.67;;
21814;SDS011;11069;48.988;8.450;2023-04-15T13:11:33;4.45;;;3.00;;
21814;SDS011;11069;48.988;8.450;2023-04-15T13:14:00;5.22;;;2.78;;
21814;SDS011;11069;48.988;8.450;2023-04-15T13:16:26;4.60;;;2.60;;
21814;SDS011;11069;48.988;8.450;2023-04-15T13:18:52;4.63;;;3.30;;
21814;SDS011;11069;48.988;8.450;2023-04-15T13:21:18;5.65;;;3.03;;
21814;SDS011;11069;48.988;8.450;2023-04-15T13:23:44;6.90;;;3.50;;
21814;SDS011;11069;48.988;8.450;2023-04-15T13:26:09;4.90;;;3.00;;
21814;SDS011;11069;48.988;8.450;2023-04-15T13:28:35;4.13;;;2.92;;
21814;SDS011;11069;48.988;8.450;2023-04-15T13:31:01;5.20;;;3.47;;
21814;SDS011;11069;48.988;8.450;2023-04-15T13:33:27;6.93;;;3.10;;
21814;SDS011;11069;48.988;8.450;2023-04-15T13:35:52;5.18;;;3.38;;
21814;SDS011;11069;48.988;8.450;2023-04-15T13:38:18;7.25;;;3.90;;
21814;SDS011;11069;48.988;8.450;2023-04-15T13:40:44;6.45;;;4.00;;
21814;SDS011;11069;48.988;8.450;2023-04-15T13:43:10;10.32;;;4.18;;
21814;SDS011;11069;48.988;8.450;2023-04-15T13:45:36;4.82;;;4.32;;
21814;SDS011;11069;48.988;8.450;2023-04-15T13:48:01;5.60;;;3.97;;
21814;SDS011;11069;48.988;8.450;2023-04-15T13:50:27;6.63;;;3.50;;
21814;SDS011;11069;48.988;8.450;2023-04-15T13:52:53;6.15;;;3.58;;
21814;SDS011;11069;48.988;8.450;2023-04-15T13:55:19;6.22;;;4.07;;
21814;SDS011;11069;48.988;8.450;2023-04-15T13:57:44;5.30;;;4.25;;
21814;SDS011;11069;48.988;8.450;2023-04-15T14:00:10;5.85;;;3.90;;
21814;SDS011;11069;48.988;8.450;2023-04-15T14:02:36;5.60;;;3.88;;
21814;SDS011;11069;48.988;8.450;2023-04-15T14:05:02;5.68;;;3.78;;
21814;SDS011;11069;48.988;8.450;2023-04-15T14:07:30;5.72;;;3.72;;
21814;SDS011;11069;48.988;8.450;2023-04-15T14:09:56;5.07;;;3.88;;
21814;SDS011;11069;48.988;8.450;2023-04-15T14:12:21;5.38;;;3.67;;
21814;SDS011;11069;48.988;8.450;2023-04-15T14:14:47;4.30;;;3.53;;
21814;SDS011;11069;48.988;8.450;2023-04-15T14:17:13;5.85;;;3.75;;
21814;SDS011;11069;48.988;8.450;2023-04-15T14:19:38;6.30;;;3.17;;
21814;SDS011;11069;48.988;8.450;2023-04-15T14:22:04;4.28;;;3.10;;
21814;SDS011;11069;48.988;8.450;2023-04-15T14:24:30;5.80;;;3.22;;
21814;SDS011;11069;48.988;8.450;2023-04-15T14:26:55;7.53;;;3.50;;
21814;SDS011;11069;48.988;8.450;2023-04-15T14:29:22;4.03;;;2.75;;
21814;SDS011;11069;48.988;8.450;2023-04-15T14:31:47;3.75;;;2.60;;
21814;SDS011;11069;48.988;8.450;2023-04-15T14:34:14;5.25;;;2.67;;
21814;SDS011;11069;48.988;8.450;2023-04-15T14:36:40;5.22;;;2.80;;
21814;SDS011;11069;48.988;8.450;2023-04-15T14:39:07;2.95;;;2.33;;
21814;SDS011;11069;48.988;8.450;2023-04-15T14:41:33;4.88;;;2.50;;
21814;SDS011;11069;48.988;8.450;2023-04-15T14:43:59;3.80;;;2.50;;
21814;SDS011;11069;48.988;8.450;2023-04-15T14:46:25;4.25;;;2.60;;
21814;SDS011;11069;48.988;8.450;2023-04-15T14:48:51;3.67;;;2.38;;
21814;SDS011;11069;48.988;8.450;2023-04-15T14:51:16;4.38;;;2.47;;
21814;SDS011;11069;48.988;8.450;2023-04-15T14:53:42;4.85;;;2.17;;
21814;SDS011;11069;48.988;8.450;2023-04-15T14:56:08;4.78;;;2.80;;
21814;SDS011;11069;48.988;8.450;2023-04-15T14:58:34;4.30;;;2.30;;
21814;SDS011;11069;48.988;8.450;2023-04-15T15:01:00;4.80;;;2.30;;
21814;SDS011;11069;48.988;8.450;2023-04-15T15:03:26;3.83;;;2.15;;